Time;durP1;ratioP1;P1;durP2;ratioP2;P2;SDS_P1;SDS_P2;PMS_P1;PMS_P2;Temp;Humidity;BMP_temperature;BMP_pressure;BME280_temperature;BME280_humidity;BME280_pressure;Samples;Min_cycle;Max_cycle;Signal;HPM_P1;HPM_P2
2023/08/05 00:00:43;;;;;;;12.05;10.85;;;;;;;24.80;100.00;101101.66;5074827;28;20048;-76
2023/08/05 00:03:08;;;;;;;12.63;10.77;;;;;;;24.88;100.00;101253.75;5074971;28;20063;-76
2023/08/05 00:05:34;;;;;;;11.43;10.32;;;;;;;24.79;100.00;101296.03;5074466;28;20048;-76
2023/08/05 00:07:59;;;;;;;11.48;10.38;;;;;;;24.16;100.00;101343.50;5056462;28;20032;-77
2023/08/05 00:10:25;;;;;;;10.80;9.80;;;;;;;25.05;100.00;101539.03;5075007;28;20025;-78
2023/08/05 00:12:50;;;;;;;11.43;10.32;;;;;;;24.73;100.00;101443.91;5056311;28;20449;-75
2023/08/05 00:15:16;;;;;;;10.93;9.90;;;;;;;24.93;100.00;101542.38;5074448;28;20029;-77
2023/08/05 00:17:41;;;;;;;10.68;9.60;;;;;;;25.00;100.00;101600.13;5074584;28;20481;-76
2023/08/05 00:20:08;;;;;;;11.73;10.20;;;;;;;24.61;100.00;101656.22;5074258;28;20116;-75
2023/08/05 00:22:33;;;;;;;11.10;9.98;;;;;;;24.87;100.00;101757.06;5074378;28;20035;-77
2023/08/05 00:24:59;;;;;;;10.18;9.27;;;;;;;24.31;100.00;101738.63;5073901;28;20028;-76
2023/08/05 00:27:24;;;;;;;10.80;9.40;;;;;;;24.88;100.00;101855.03;5074237;28;20086;-75
2023/08/05 00:29:50;;;;;;;10.40;9.40;;;;;;;24.51;100.00;101885.78;5074092;28;20032;-77
2023/08/05 00:32:16;;;;;;;10.15;9.15;;;;;;;24.47;100.00;101866.06;5078906;28;20028;-75
2023/08/05 00:34:41;;;;;;;10.35;9.45;;;;;;;24.41;100.00;101666.97;5080424;28;20126;-76
2023/08/05 00:37:06;;;;;;;11.93;9.65;;;;;;;24.39;100.00;101811.88;5076750;28;20028;-75
2023/08/05 00:39:32;;;;;;;10.57;9.57;;;;;;;24.68;100.00;101812.84;5073904;28;20119;-76
2023/08/05 00:41:57;;;;;;;10.82;9.80;;;;;;;24.53;100.00;101800.69;5073780;28;20070;-75
2023/08/05 00:44:23;;;;;;;11.98;10.38;;;;;;;24.32;100.00;101796.69;5072627;28;20043;-75
2023/08/05 00:46:50;;;;;;;11.38;10.10;;;;;;;24.45;100.00;101815.88;5073505;28;20112;-76
2023/08/05 00:49:15;;;;;;;12.02;9.85;;;;;;;24.34;100.00;101802.66;5074039;28;20384;-75
2023/08/05 00:51:41;;;;;;;11.75;10.45;;;;;;;24.23;100.00;101803.25;5073820;28;20032;-76
2023/08/05 00:54:07;;;;;;;11.45;9.85;;;;;;;24.35;100.00;101838.13;5073890;28;20036;-76
2023/08/05 00:56:35;;;;;;;11.27;10.27;;;;;;;24.27;100.00;101835.09;5073832;28;20400;-76
2023/08/05 00:59:01;;;;;;;11.85;10.32;;;;;;;24.20;100.00;101811.22;5073733;28;20176;-76
2023/08/05 01:01:26;;;;;;;12.50;10.73;;;;;;;23.87;100.00;101782.66;5056014;28;20514;-76
2023/08/05 01:03:52;;;;;;;11.63;10.60;;;;;;;24.27;100.00;101835.94;5073705;28;20033;-74
2023/08/05 01:06:19;;;;;;;11.15;9.90;;;;;;;24.41;100.00;101867.25;5055187;28;20403;-76
2023/08/05 01:08:45;;;;;;;13.52;10.43;;;;;;;24.22;100.00;101718.38;5055474;28;20161;-76
2023/08/05 01:11:11;;;;;;;11.50;10.50;;;;;;;24.28;100.00;101665.16;5072761;28;20098;-76
2023/08/05 01:13:37;;;;;;;10.60;9.60;;;;;;;24.01;100.00;101605.16;5072660;28;20388;-75
2023/08/05 01:16:03;;;;;;;10.52;9.63;;;;;;;24.40;100.00;101607.25;5055186;28;20430;-74
2023/08/05 01:18:30;;;;;;;11.88;10.48;;;;;;;24.23;100.00;101530.22;5055110;28;20031;-77
2023/08/05 01:20:57;;;;;;;11.38;10.27;;;;;;;24.17;100.00;101488.97;5072933;28;20119;-76
2023/08/05 01:23:35;;;;;;;12.57;10.10;;;;;;;23.73;100.00;101399.81;5054851;28;20029;-76
2023/08/05 01:26:03;;;;;;;11.82;10.73;;;;;;;23.82;100.00;101402.72;5072797;28;20032;-77
2023/08/05 01:28:29;;;;;;;11.18;10.15;;;;;;;24.13;100.00;101424.28;5071788;28;20047;-74
2023/08/05 01:30:56;;;;;;;11.95;10.85;;;;;;;24.47;100.00;101445.50;5071990;28;20021;-74
2023/08/05 01:33:22;;;;;;;12.63;11.32;;;;;;;23.79;100.00;101347.50;5072238;28;20112;-75
2023/08/05 01:35:48;;;;;;;13.07;11.77;;;;;;;24.03;100.00;101401.44;5072744;28;20115;-78
2023/08/05 01:38:14;;;;;;;12.98;11.30;;;;;;;24.13;100.00;101383.50;5072953;28;20101;-74
2023/08/05 01:40:40;;;;;;;13.25;11.77;;;;;;;23.90;100.00;101327.72;5054906;28;20029;-76
2023/08/05 01:43:05;;;;;;;11.95;10.77;;;;;;;23.91;100.00;101320.75;5068211;28;20487;-75
2023/08/05 01:45:30;;;;;;;13.45;11.25;;;;;;;24.64;100.00;101376.81;5063328;28;20419;-73
2023/08/05 01:47:56;;;;;;;13.95;10.52;;;;;;;24.91;100.00;101308.22;5063077;28;20037;-73
2023/08/05 01:50:23;;;;;;;11.45;10.45;;;;;;;24.27;100.00;101276.03;5071228;28;20411;-70
2023/08/05 01:52:48;;;;;;;13.27;10.98;;;;;;;24.85;100.00;101274.81;5051334;28;20033;-76
2023/08/05 01:55:14;;;;;;;12.30;11.25;;;;;;;24.14;100.00;101252.59;5034485;28;20047;-78
2023/08/05 01:57:39;;;;;;;13.00;11.70;;;;;;;24.14;100.00;101278.59;5052390;28;20676;-76
2023/08/05 02:00:06;;;;;;;13.02;11.68;;;;;;;23.49;100.00;101196.97;5033566;28;20071;-76
2023/08/05 02:02:31;;;;;;;12.65;11.45;;;;;;;23.91;100.00;101274.81;5051411;28;20488;-78
2023/08/05 02:04:56;;;;;;;13.57;12.38;;;;;;;23.48;100.00;101260.19;5051589;28;20124;-77
2023/08/05 02:07:22;;;;;;;12.63;11.43;;;;;;;23.66;100.00;101232.25;5051962;28;20457;-75
2023/08/05 02:09:47;;;;;;;14.15;12.20;;;;;;;23.65;100.00;101791.72;5051730;28;20036;-77
2023/08/05 02:12:13;;;;;;;13.10;11.90;;;;;;;23.27;100.00;101723.56;5034396;28;20550;-76
2023/08/05 02:14:38;;;;;;;14.07;11.60;;;;;;;23.67;100.00;101785.50;5051796;28;20033;-76
2023/08/05 02:17:04;;;;;;;13.73;12.32;;;;;;;23.74;100.00;101768.66;5051778;28;20193;-78
2023/08/05 02:19:29;;;;;;;14.00;12.60;;;;;;;23.68;100.00;101823.56;5051752;28;20029;-77
2023/08/05 02:21:55;;;;;;;13.55;12.27;;;;;;;23.89;100.00;101837.16;5052434;28;20036;-77
2023/08/05 02:24:20;;;;;;;14.18;11.90;;;;;;;23.76;100.00;101821.41;5052294;28;20048;-78
2023/08/05 02:26:46;;;;;;;13.60;12.30;;;;;;;23.60;100.00;101719.22;5052115;28;20037;-78
2023/08/05 02:29:11;;;;;;;15.30;13.70;;;;;;;23.78;100.00;101600.44;5052671;28;20021;-78
2023/08/05 02:31:36;;;;;;;14.95;13.50;;;;;;;23.59;100.00;101522.69;5052038;28;20040;-78
2023/08/05 02:34:02;;;;;;;15.65;14.15;;;;;;;23.41;100.00;101452.81;5052775;28;20106;-75
2023/08/05 02:36:27;;;;;;;14.52;13.05;;;;;;;23.60;100.00;101396.28;5052388;28;20033;-76
2023/08/05 02:38:53;;;;;;;14.90;13.20;;;;;;;23.74;100.00;101344.31;5051581;28;20029;-77
2023/08/05 02:41:18;;;;;;;13.30;12.10;;;;;;;23.73;100.00;100961.63;5051467;28;20506;-78
2023/08/05 02:43:44;;;;;;;13.98;12.57;;;;;;;23.32;100.00;100853.63;5051986;28;20612;-78
2023/08/05 02:46:09;;;;;;;14.27;12.82;;;;;;;23.87;100.00;100896.56;5051837;28;20039;-77
2023/08/05 02:48:34;;;;;;;14.07;12.70;;;;;;;23.68;100.00;100865.00;5051966;28;20491;-77
2023/08/05 02:51:00;;;;;;;15.88;13.57;;;;;;;23.21;100.00;100786.88;5052161;28;20040;-78
2023/08/05 02:53:25;;;;;;;13.07;11.77;;;;;;;23.30;100.00;100742.09;5051267;28;20033;-73
2023/08/05 02:55:51;;;;;;;14.32;12.93;;;;;;;23.43;100.00;100677.22;5052073;28;20499;-78
2023/08/05 02:58:17;;;;;;;14.05;12.75;;;;;;;23.42;100.00;100639.22;5051819;28;20038;-77
2023/08/05 03:00:43;;;;;;;14.85;13.32;;;;;;;23.25;100.00;100596.25;5051568;28;20389;-77
2023/08/05 03:03:10;;;;;;;14.93;13.52;;;;;;;23.15;100.00;100475.88;5051375;28;20044;-76
2023/08/05 03:05:36;;;;;;;14.98;13.52;;;;;;;23.03;100.00;100334.91;5050871;28;20032;-77
2023/08/05 03:08:02;;;;;;;14.85;13.50;;;;;;;22.66;100.00;100452.56;5052158;28;20036;-78
2023/08/05 03:10:27;;;;;;;14.70;13.40;;;;;;;22.55;100.00;100273.63;5055339;28;20029;-76
2023/08/05 03:12:53;;;;;;;16.17;12.98;;;;;;;22.96;100.00;100299.13;5055440;28;20423;-76
2023/08/05 03:15:18;;;;;;;15.40;13.70;;;;;;;22.88;100.00;100254.78;5055222;28;20029;-77
2023/08/05 03:17:44;;;;;;;14.82;13.32;;;;;;;22.93;100.00;100256.09;5054591;28;20037;-76
2023/08/05 03:20:30;;;;;;;15.70;13.68;;;;;;;22.49;100.00;100141.03;5055177;28;20029;-77
2023/08/05 03:22:56;;;;;;;16.67;13.48;;;;;;;22.62;100.00;100100.34;5037902;28;20032;-78
2023/08/05 03:25:23;;;;;;;14.88;12.60;;;;;;;22.90;100.00;100168.13;5055359;28;20511;-77
2023/08/05 03:27:49;;;;;;;15.10;12.13;;;;;;;22.82;100.00;100113.44;5054885;28;20484;-77
2023/08/05 03:30:15;;;;;;;19.05;12.93;;;;;;;22.74;100.00;100135.72;5055311;28;20581;-76
2023/08/05 03:32:41;;;;;;;15.77;13.25;;;;;;;23.01;100.00;100214.88;5055003;28;20033;-76
2023/08/05 03:35:06;;;;;;;14.48;11.93;;;;;;;22.91;100.00;100190.56;5037322;28;20029;-76
2023/08/05 03:37:32;;;;;;;14.20;12.70;;;;;;;23.26;100.00;100273.50;5055055;28;20502;-76
2023/08/05 03:39:57;;;;;;;16.52;12.13;;;;;;;22.59;100.00;100168.78;5054476;28;20403;-76
2023/08/05 03:42:24;;;;;;;17.35;11.70;;;;;;;22.86;100.00;100208.22;5054930;28;20120;-76
2023/08/05 03:44:49;;;;;;;21.08;12.90;;;;;;;23.06;100.00;100254.25;5054996;28;20033;-76
2023/08/05 03:47:15;;;;;;;19.42;11.82;;;;;;;23.55;100.00;100285.09;5054311;28;20388;-76
2023/08/05 03:49:41;;;;;;;16.67;11.60;;;;;;;23.57;100.00;100339.53;5054478;28;20033;-76
2023/08/05 03:52:06;;;;;;;15.23;11.50;;;;;;;23.61;100.00;100339.16;5037121;28;20116;-76
2023/08/05 03:54:32;;;;;;;17.42;11.70;;;;;;;23.23;100.00;100320.44;5061286;28;20025;-76
2023/08/05 03:56:59;;;;;;;12.75;11.50;;;;;;;23.18;100.00;100359.72;5070740;28;20045;-77
2023/08/05 03:59:25;;;;;;;12.85;10.55;;;;;;;23.37;100.00;100382.56;5056415;28;20056;-77
2023/08/05 04:01:51;;;;;;;10.98;9.90;;;;;;;23.78;100.00;100392.44;5053170;28;20123;-74
2023/08/05 04:04:16;;;;;;;12.25;9.48;;;;;;;23.28;100.00;100324.34;5052955;28;20159;-74
2023/08/05 04:06:41;;;;;;;9.63;8.60;;;;;;;23.81;100.00;100387.84;5053143;28;20025;-76
2023/08/05 04:09:07;;;;;;;10.82;9.82;;;;;;;23.39;100.00;100366.88;5053386;28;20086;-78
2023/08/05 04:11:32;;;;;;;10.45;9.55;;;;;;;23.44;100.00;100377.72;5053004;28;20460;-77
2023/08/05 04:13:59;;;;;;;10.70;9.60;;;;;;;23.66;100.00;100370.00;5052881;28;20035;-77
2023/08/05 04:16:25;;;;;;;11.15;10.13;;;;;;;23.11;100.00;100321.34;5052851;28;20119;-76
2023/08/05 04:18:52;;;;;;;10.55;9.45;;;;;;;22.98;100.00;100315.41;5035125;28;20033;-77
2023/08/05 04:21:17;;;;;;;10.40;9.30;;;;;;;23.25;100.00;100370.47;5053482;28;20041;-76
2023/08/05 04:23:43;;;;;;;10.73;9.70;;;;;;;23.59;100.00;100368.81;5053159;28;20102;-77
2023/08/05 04:26:09;;;;;;;9.55;8.60;;;;;;;23.69;100.00;100362.78;5034713;28;20029;-77
2023/08/05 04:28:34;;;;;;;9.50;8.50;;;;;;;23.77;100.00;100367.41;5052556;28;20037;-77
2023/08/05 04:31:00;;;;;;;9.23;8.32;;;;;;;23.77;100.00;100328.47;5034898;28;20033;-77
2023/08/05 04:33:25;;;;;;;8.35;7.63;;;;;;;23.32;100.00;100319.78;5052950;28;20044;-78
2023/08/05 04:35:52;;;;;;;8.75;7.95;;;;;;;23.49;100.00;100318.53;5052703;28;20025;-78
2023/08/05 04:38:17;;;;;;;10.57;7.80;;;;;;;24.08;100.00;100370.19;5035695;28;20032;-78
2023/08/05 04:40:43;;;;;;;8.52;7.60;;;;;;;24.08;100.00;100372.78;5052864;28;20052;-78
2023/08/05 04:43:09;;;;;;;7.85;7.05;;;;;;;24.34;100.00;100369.91;5052924;28;20036;-76
2023/08/05 04:45:35;;;;;;;8.13;7.03;;;;;;;24.80;100.00;100354.91;5052332;28;20044;-76
2023/08/05 04:48:01;;;;;;;7.70;6.97;;;;;;;24.55;100.00;100335.22;5051949;28;20036;-77
2023/08/05 04:50:27;;;;;;;7.97;6.68;;;;;;;24.22;100.00;100327.50;5034758;28;20029;-79
2023/08/05 04:52:52;;;;;;;7.50;6.70;;;;;;;24.16;100.00;100257.00;5052667;28;20476;-78
2023/08/05 04:55:17;;;;;;;10.02;7.38;;;;;;;24.08;100.00;100262.81;5008969;28;1227457;-78
2023/08/05 04:57:44;;;;;;;8.93;6.60;;;;;;;24.11;100.00;100262.53;5053492;28;20567;-78
2023/08/05 05:00:09;;;;;;;7.70;6.90;;;;;;;;;;5036049;28;20450;-78
2023/08/05 05:02:35;;;;;;;7.95;7.15;;;;;;;24.67;100.00;100356.81;5053683;28;20082;-74
2023/08/05 05:05:03;;;;;;;11.25;7.43;;;;;;;24.83;100.00;100363.31;5035941;28;20123;-77
2023/08/05 05:07:28;;;;;;;9.45;7.28;;;;;;;25.23;100.00;100444.19;5053533;28;20025;-78
2023/08/05 05:09:53;;;;;;;7.88;7.13;;;;;;;25.11;100.00;100458.19;5035888;28;20032;-75
2023/08/05 05:12:19;;;;;;;8.07;6.80;;;;;;;25.23;100.00;100542.31;5053377;28;20082;-76
2023/08/05 05:14:45;;;;;;;9.05;7.47;;;;;;;24.78;100.00;100607.41;5035139;28;20255;-78
2023/08/05 05:17:15;;;;;;;12.15;7.47;;;;;;;24.73;100.00;100559.28;5052498;28;20471;-77
2023/08/05 05:19:40;;;;;;;8.73;7.28;;;;;;;25.57;100.00;100612.44;5052619;28;20052;-76
2023/08/05 05:22:06;;;;;;;8.50;7.70;;;;;;;25.43;100.00;100632.72;5035249;28;20029;-77
2023/08/05 05:24:31;;;;;;;9.65;7.35;;;;;;;25.38;100.00;100567.09;5052640;28;20037;-77
2023/08/05 05:26:57;;;;;;;8.55;6.90;;;;;;;25.81;100.00;100572.34;5052657;28;20044;-78
2023/08/05 05:29:23;;;;;;;7.70;6.90;;;;;;;26.13;100.00;100614.84;5034906;28;21695;-78
2023/08/05 05:31:48;;;;;;;7.65;6.47;;;;;;;26.71;100.00;100760.44;5034636;28;20029;-76
2023/08/05 05:34:14;;;;;;;10.93;6.97;;;;;;;26.12;100.00;100754.84;5051894;28;20044;-76
2023/08/05 05:36:39;;;;;;;9.15;6.38;;;;;;;26.90;100.00;100802.34;5052391;28;20432;-76
2023/08/05 05:39:05;;;;;;;13.02;7.07;;;;;;;27.51;100.00;100805.09;5052229;28;20037;-76
2023/08/05 05:41:30;;;;;;;7.78;6.25;;;;;;;27.46;100.00;100787.16;5052429;28;20031;-76
2023/08/05 05:43:57;;;;;;;10.15;6.88;;;;;;;26.83;100.00;100735.09;5052472;28;20025;-77
2023/08/05 05:46:22;;;;;;;10.82;6.70;;;;;;;27.24;100.00;100667.13;5052016;28;20029;-77
2023/08/05 05:48:48;;;;;;;10.18;7.13;;;;;;;26.68;100.00;100647.63;5051359;28;20033;-77
2023/08/05 05:51:13;;;;;;;10.95;7.10;;;;;;;27.12;100.00;100512.31;5052021;28;20032;-74
2023/08/05 05:53:39;;;;;;;11.35;7.30;;;;;;;27.64;100.00;100575.66;5033803;28;20483;-73
2023/08/05 05:56:05;;;;;;;10.10;6.78;;;;;;;27.76;100.00;100566.72;5033570;28;20052;-75
2023/08/05 05:58:34;;;;;;;9.95;7.07;;;;;;;27.34;100.00;100605.34;5033834;28;20029;-76
2023/08/05 06:01:01;;;;;;;9.27;6.70;;;;;;;27.54;100.00;100556.53;5051785;28;20516;-75
2023/08/05 06:03:27;;;;;;;8.73;6.60;;;;;;;26.97;100.00;100584.19;5033496;28;20419;-77
2023/08/05 06:05:52;;;;;;;10.68;7.00;;;;;;;27.49;100.00;100548.28;5051374;28;20033;-75
2023/08/05 06:08:18;;;;;;;10.60;6.85;;;;;;;26.81;100.00;100473.38;5051475;28;20031;-75
2023/08/05 06:10:43;;;;;;;8.50;7.15;;;;;;;26.37;100.00;100438.91;5051577;28;20033;-75
2023/08/05 06:13:09;;;;;;;13.50;8.18;;;;;;;27.19;100.00;100375.03;5051425;28;20032;-75
2023/08/05 06:15:39;;;;;;;11.00;6.95;;;;;;;27.66;100.00;100391.59;5051196;28;20128;-74
2023/08/05 06:18:05;;;;;;;13.38;9.35;;;;;;;27.29;100.00;100388.91;5033893;28;20029;-76
2023/08/05 06:20:30;;;;;;;8.93;7.40;;;;;;;28.11;100.00;100438.81;5051066;28;20037;-76
2023/08/05 06:22:55;;;;;;;8.07;6.68;;;;;;;27.23;100.00;100581.91;5051437;28;20040;-75
2023/08/05 06:25:21;;;;;;;9.90;7.28;;;;;;;27.49;100.00;100509.94;5051292;28;20029;-76
2023/08/05 06:27:46;;;;;;;8.50;7.03;;;;;;;27.98;100.00;100627.47;5050947;28;20078;-76
2023/08/05 06:30:12;;;;;;;12.38;7.32;;;;;;;27.59;100.00;100638.81;5050645;28;20029;-73
2023/08/05 06:32:38;;;;;;;9.18;7.10;;;;;;;27.59;100.00;100675.41;5051465;28;20041;-76
2023/08/05 06:35:04;;;;;;;7.45;6.60;;;;;;;28.64;100.00;100696.44;5051625;28;20083;-77
2023/08/05 06:37:29;;;;;;;7.50;6.13;;;;;;;28.21;100.00;100720.38;5051504;28;20025;-75
2023/08/05 06:39:55;;;;;;;8.27;6.80;;;;;;;28.18;100.00;100822.69;5051442;28;20025;-76
2023/08/05 06:42:23;;;;;;;8.38;6.13;;;;;;;27.48;100.00;100909.84;5052331;28;20032;-77
2023/08/05 06:44:49;;;;;;;6.43;5.78;;;;;;;27.54;100.00;100923.25;5055668;28;20027;-76
2023/08/05 06:47:15;;;;;;;7.93;5.53;;;;;;;28.47;100.00;100935.28;5055809;28;20029;-76
2023/08/05 06:49:40;;;;;;;13.60;6.68;;;;;;;28.06;100.00;101019.13;5037957;28;20024;-76
2023/08/05 06:52:06;;;;;;;13.57;6.72;;;;;;;28.53;100.00;101005.41;5055716;28;20108;-76
2023/08/05 06:54:32;;;;;;;9.63;5.97;;;;;;;28.08;100.00;100976.19;5055746;28;20029;-77
2023/08/05 06:56:57;;;;;;;9.02;6.18;;;;;;;28.64;100.00;101008.00;5037940;28;20107;-76
2023/08/05 06:59:23;;;;;;;9.10;6.00;;;;;;;28.32;100.00;101020.34;5055516;28;20483;-78
2023/08/05 07:01:48;;;;;;;8.15;5.55;;;;;;;29.97;100.00;101163.84;5055859;28;20039;-76
2023/08/05 07:04:14;;;;;;;7.45;5.32;;;;;;;29.28;100.00;101345.69;5055654;28;20043;-76
2023/08/05 07:06:40;;;;;;;9.18;5.57;;;;;;;29.25;100.00;101409.69;5055480;28;20029;-76
2023/08/05 07:09:06;;;;;;;10.68;5.95;;;;;;;29.61;100.00;101440.72;5037872;28;20033;-77
2023/08/05 07:11:31;;;;;;;8.95;5.50;;;;;;;29.03;100.00;101442.03;5056380;28;20036;-77
2023/08/05 07:13:57;;;;;;;11.27;5.13;;;;;;;29.42;100.00;101773.56;5072755;28;20037;-74
2023/08/05 07:16:22;;;;;;;7.80;5.00;;;;;;;30.58;100.00;101894.63;5045494;28;20415;-77
2023/08/05 07:18:48;;;;;;;6.95;4.88;;;;;;;29.52;100.00;101781.53;5055312;28;20078;-77
2023/08/05 07:21:15;;;;;;;10.50;5.15;;;;;;;29.43;100.00;101664.28;5055454;28;20029;-77
2023/08/05 07:23:40;;;;;;;8.48;4.57;;;;;;;30.23;100.00;101678.69;5037603;28;20123;-77
2023/08/05 07:26:06;;;;;;;6.88;4.75;;;;;;;30.38;100.00;101777.22;5055392;28;20127;-78
2023/08/05 07:28:31;;;;;;;9.68;4.93;;;;;;;29.82;100.00;101827.22;5055099;28;20028;-77
2023/08/05 07:31:04;;;;;;;9.48;5.03;;;;;;;30.26;100.00;101877.97;5054551;28;20040;-76
2023/08/05 07:33:30;;;;;;;8.30;4.50;;;;;;;30.27;100.00;101792.97;5055190;28;20098;-76
2023/08/05 07:35:56;;;;;;;6.75;4.53;;;;;;;30.68;100.00;101938.41;5055123;28;20037;-76
2023/08/05 07:38:25;;;;;;;7.20;4.53;;;;;;;30.58;100.00;101926.16;5036802;28;20033;-77
2023/08/05 07:40:54;;;;;;;7.88;4.63;;;;;;;30.56;100.00;101991.97;5037176;28;20101;-77
2023/08/05 07:43:24;;;;;;;6.53;4.38;;;;;;;31.78;100.00;102016.97;5054719;28;20025;-76
2023/08/05 07:45:52;;;;;;;7.78;4.35;;;;;;;30.93;100.00;101944.34;5054684;28;20037;-77
2023/08/05 07:48:18;;;;;;;9.73;4.70;;;;;;;30.27;100.00;101904.09;5050040;28;20037;-75
2023/08/05 07:50:43;;;;;;;7.72;4.53;;;;;;;30.04;100.00;101897.22;5036742;28;20037;-77
2023/08/05 07:53:09;;;;;;;9.43;5.70;;;;;;;30.82;100.00;101960.97;5054032;28;20122;-78
2023/08/05 07:55:37;;;;;;;8.57;4.38;;;;;;;31.81;100.00;101957.03;5054666;28;20045;-77
2023/08/05 07:58:04;;;;;;;12.27;6.65;;;;;;;30.24;100.00;101896.47;5054348;28;20035;-77
2023/08/05 08:00:30;;;;;;;4.82;4.30;;;;;;;31.00;100.00;101961.28;5054451;28;20037;-78
2023/08/05 08:02:56;;;;;;;8.45;4.35;;;;;;;30.92;100.00;101947.94;5054675;28;20045;-78
2023/08/05 08:05:21;;;;;;;8.88;4.90;;;;;;;31.95;100.00;101697.84;5054253;28;20028;-78
2023/08/05 08:07:47;;;;;;;6.82;4.40;;;;;;;31.75;100.00;101478.53;5053856;28;20055;-78
2023/08/05 08:10:13;;;;;;;7.68;5.05;;;;;;;32.05;100.00;101319.53;5054033;28;20029;-77
2023/08/05 08:12:39;;;;;;;5.88;4.47;;;;;;;31.82;100.00;100948.00;5053448;28;20067;-77
2023/08/05 08:15:05;;;;;;;8.43;4.30;;;;;;;31.74;100.00;100908.47;5054332;28;20145;-77
2023/08/05 08:17:30;;;;;;;6.05;3.90;;;;;;;31.75;100.00;100911.94;5054291;28;20103;-76
2023/08/05 08:19:56;;;;;;;7.20;4.18;;;;;;;30.98;100.00;100843.50;5053492;28;20477;-77
2023/08/05 08:22:21;;;;;;;10.02;4.00;;;;;;;32.60;100.00;100956.63;5035933;28;20032;-76
2023/08/05 08:24:47;;;;;;;5.55;3.75;;;;;;;31.56;100.00;100871.69;5035907;28;20029;-77
2023/08/05 08:27:12;;;;;;;7.15;3.85;;;;;;;32.21;100.00;100886.00;5053379;28;20032;-78
2023/08/05 08:29:38;;;;;;;6.50;3.75;;;;;;;31.74;100.00;100887.41;5053490;28;20090;-77
2023/08/05 08:32:03;;;;;;;7.60;3.63;;;;;;;32.04;100.00;100978.25;5036288;28;20033;-77
2023/08/05 08:34:29;;;;;;;6.13;3.60;;;;;;;32.87;100.00;101268.25;5053475;28;20415;-78
2023/08/05 08:36:54;;;;;;;10.68;5.53;;;;;;;32.42;100.00;101315.81;5053623;28;20028;-76
2023/08/05 08:39:19;;;;;;;6.80;4.00;;;;;;;32.11;100.00;101280.25;5054272;28;20247;-78
2023/08/05 08:41:48;;;;;;;6.15;3.97;;;;;;;32.38;100.00;101340.78;5052965;28;20047;-77
2023/08/05 08:44:16;;;;;;;9.13;4.78;;;;;;;32.09;100.00;101344.59;5036383;28;20120;-77
2023/08/05 08:46:43;;;;;;;6.82;3.60;;;;;;;32.08;100.00;101379.78;5054249;28;20029;-77
2023/08/05 08:49:11;;;;;;;6.95;3.97;;;;;;;31.98;100.00;101347.41;5053906;28;20480;-76
2023/08/05 08:51:37;;;;;;;9.50;4.75;;;;;;;32.31;100.00;101315.19;5053602;28;20033;-76
2023/08/05 08:54:03;;;;;;;10.70;3.80;;;;;;;32.74;100.00;101290.72;5053577;28;20037;-75
2023/08/05 08:56:30;;;;;;;10.73;3.90;;;;;;;32.63;100.00;101207.47;5053007;28;20061;-78
2023/08/05 08:58:56;;;;;;;5.78;3.40;;;;;;;33.13;100.00;101219.00;5053749;28;20024;-78
2023/08/05 09:01:22;;;;;;;8.20;3.60;;;;;;;33.08;100.00;101147.41;5053718;28;20079;-77
2023/08/05 09:03:51;;;;;;;9.23;3.72;;;;;;;33.96;100.00;101136.25;5053355;28;20033;-78
2023/08/05 09:06:20;;;;;;;6.45;3.72;;;;;;;32.96;100.00;101014.22;5034794;28;20443;-78
2023/08/05 09:08:47;;;;;;;8.45;3.53;;;;;;;33.71;100.00;100910.22;5052646;28;20083;-77
2023/08/05 09:11:14;;;;;;;9.63;4.00;;;;;;;33.08;100.00;100827.53;5052940;28;20031;-77
2023/08/05 09:13:40;;;;;;;7.43;3.50;;;;;;;33.50;100.00;100864.22;5035162;28;20029;-76
2023/08/05 09:16:05;;;;;;;7.13;3.55;;;;;;;33.33;100.00;100873.97;5034836;28;20048;-77
2023/08/05 09:18:31;;;;;;;6.53;3.25;;;;;;;33.48;100.00;100813.47;5052858;28;20453;-76
2023/08/05 09:20:59;;;;;;;6.05;3.67;;;;;;;33.36;100.00;100747.00;5035107;28;20506;-78
2023/08/05 09:23:25;;;;;;;7.97;3.35;;;;;;;33.84;100.00;100701.94;5052439;28;20112;-74
2023/08/05 09:25:50;;;;;;;11.18;3.63;;;;;;;33.45;100.00;100629.91;5052501;28;20124;-77
2023/08/05 09:28:31;;;;;;;6.65;3.58;;;;;;;33.90;100.00;100637.03;5052953;28;20083;-77
2023/08/05 09:31:16;;;;;;;7.78;3.58;;;;;;;34.09;100.00;100581.94;5034708;28;20029;-76
2023/08/05 09:33:42;;;;;;;6.20;3.33;;;;;;;33.51;100.00;100441.09;5035141;28;20061;-76
2023/08/05 09:36:10;;;;;;;6.05;3.80;;;;;;;32.84;100.00;100392.63;5052530;28;20059;-77
2023/08/05 09:38:36;;;;;;;4.43;3.20;;;;;;;33.69;100.00;100198.78;5052465;28;20479;-76
2023/08/05 09:41:03;;;;;;;11.48;3.65;;;;;;;33.91;100.00;100023.59;5052492;28;20032;-77
2023/08/05 09:43:34;;;;;;;4.97;3.45;;;;;;;33.48;100.00;99962.13;5035075;28;20502;-77
2023/08/05 09:46:04;;;;;;;7.55;3.58;;;;;;;34.33;100.00;99988.34;5052241;28;20445;-75
2023/08/05 09:48:39;;;;;;;6.53;3.40;;;;;;;34.65;100.00;99900.47;5052000;28;20041;-76
2023/08/05 09:51:06;;;;;;;8.93;3.53;;;;;;;34.81;100.00;99836.66;5034903;28;20498;-76
2023/08/05 09:53:35;;;;;;;6.32;3.38;;;;;;;33.98;100.00;99855.50;5052651;28;20033;-77
2023/08/05 09:56:04;;;;;;;5.82;3.13;;;;;;;34.55;100.00;99810.19;5051936;28;20068;-77
2023/08/05 09:58:32;;;;;;;5.25;3.30;;;;;;;34.27;100.00;99817.44;5033981;28;20024;-76
2023/08/05 10:00:58;;;;;;;6.35;3.20;;;;;;;34.30;100.00;99809.09;5051879;28;20029;-73
2023/08/05 10:03:26;;;;;;;5.20;2.95;;;;;;;34.06;100.00;99779.59;5052095;28;20032;-76
2023/08/05 10:05:54;;;;;;;3.70;2.83;;;;;;;34.73;100.00;99731.94;5051548;28;20036;-76
2023/08/05 10:08:20;;;;;;;5.82;2.80;;;;;;;34.26;100.00;99755.06;5052101;28;20025;-76
2023/08/05 10:10:47;;;;;;;4.60;3.17;;;;;;;34.58;100.00;99746.41;5033647;28;20035;-76
2023/08/05 10:13:17;;;;;;;4.68;3.00;;;;;;;34.74;100.00;99682.56;5051913;28;20148;-77
2023/08/05 10:15:47;;;;;;;5.18;2.90;;;;;;;35.19;100.00;99667.63;5051412;28;20033;-76
2023/08/05 10:18:16;;;;;;;5.22;2.65;;;;;;;34.82;100.00;99712.22;5051627;28;20032;-76
2023/08/05 10:20:42;;;;;;;5.60;2.63;;;;;;;34.23;100.00;99665.69;5051578;28;20021;-75
2023/08/05 10:23:09;;;;;;;6.95;3.03;;;;;;;35.08;100.00;99729.91;5051879;28;20388;-77
2023/08/05 10:25:39;;;;;;;5.75;2.95;;;;;;;34.27;100.00;99746.13;5051937;28;20033;-76
2023/08/05 10:28:04;;;;;;;6.50;2.90;;;;;;;34.53;100.00;99752.28;5053344;28;20033;-76
2023/08/05 10:30:30;;;;;;;5.97;2.70;;;;;;;34.96;100.00;99787.06;5056464;28;20044;-75
2023/08/05 10:32:57;;;;;;;6.05;3.22;;;;;;;34.19;100.00;99741.03;5051186;28;20471;-77
2023/08/05 10:35:42;;;;;;;7.72;3.05;;;;;;;35.04;100.00;99784.25;5051736;28;20479;-76
2023/08/05 10:38:19;;;;;;;5.32;2.85;;;;;;;34.35;100.00;99745.94;5051532;28;20029;-76
2023/08/05 10:41:03;;;;;;;6.55;3.08;;;;;;;35.27;100.00;99820.81;5051778;28;20033;-77
2023/08/05 10:43:31;;;;;;;6.53;3.13;;;;;;;36.31;100.00;99809.91;5051927;28;20033;-77
2023/08/05 10:46:11;;;;;;;5.20;3.00;;;;;;;35.57;100.00;99808.78;5033875;28;20041;-78
2023/08/05 10:48:49;;;;;;;5.32;3.28;;;;;;;34.67;100.00;99812.06;5051464;28;20036;-75
2023/08/05 10:51:16;;;;;;;6.18;3.28;;;;;;;35.17;100.00;99809.84;5051853;28;20040;-77
2023/08/05 10:53:59;;;;;;;6.40;2.72;;;;;;;35.30;100.00;99776.25;5051313;28;20025;-77
2023/08/05 10:56:34;;;;;;;5.78;3.10;;;;;;;34.56;100.00;99756.34;5051370;28;20045;-77
2023/08/05 10:59:01;;;;;;;7.18;2.83;;;;;;;34.95;100.00;99772.19;5033678;28;20021;-76
2023/08/05 11:01:52;;;;;;;6.70;2.80;;;;;;;35.44;100.00;99777.84;5050905;28;20033;-77
2023/08/05 11:04:29;;;;;;;;;;;;;;;35.37;100.00;99760.34;5051725;28;20487;-75
2023/08/05 11:06:56;;;;;;;9.48;2.67;;;;;;;34.40;100.00;99731.13;5051301;28;19917;-76
2023/08/05 11:09:25;;;;;;;5.57;2.97;;;;;;;35.65;100.00;99771.50;5033535;28;20055;-77